Time;durP1;ratioP1;P1;durP2;ratioP2;P2;SDS_P1;SDS_P2;PMS_P1;PMS_P2;Temp;Humidity;BMP_temperature;BMP_pressure;BME280_temperature;BME280_humidity;BME280_pressure;Samples;Min_cycle;Max_cycle;Signal;HPM_P1;HPM_P2
2022/09/14 00:00:49;;;;;;;9.17;5.93;;;;;;;12.65;76.59;100612.53;4955948;28;20043;-78
2022/09/14 00:03:15;;;;;;;9.03;6.20;;;;;;;12.66;77.02;100627.56;4956072;28;20130;-77
2022/09/14 00:05:42;;;;;;;7.30;5.23;;;;;;;12.56;76.69;100610.97;4956646;28;20039;-77
2022/09/14 00:08:08;;;;;;;11.17;5.73;;;;;;;12.54;76.99;100612.97;4956250;28;20062;-77
2022/09/14 00:10:42;;;;;;;5.53;4.40;;;;;;;12.54;76.87;100618.31;4956165;28;20075;-78
2022/09/14 00:13:09;;;;;;;6.70;4.60;;;;;;;12.52;76.85;100606.97;4956094;28;20046;-76
2022/09/14 00:15:36;;;;;;;8.60;5.03;;;;;;;12.57;77.03;100604.59;4956041;28;20411;-76
2022/09/14 00:18:03;;;;;;;6.63;5.13;;;;;;;12.53;77.26;100603.31;4956081;28;20043;-75
2022/09/14 00:20:29;;;;;;;11.90;4.70;;;;;;;12.34;76.90;100566.38;4955891;28;20419;-77
2022/09/14 00:22:54;;;;;;;8.20;5.07;;;;;;;12.53;76.94;100594.47;4955836;28;20062;-76
2022/09/14 00:25:20;;;;;;;9.07;5.43;;;;;;;12.49;77.03;100594.00;4955791;28;20043;-77
2022/09/14 00:27:45;;;;;;;12.23;6.20;;;;;;;12.48;77.11;100597.66;4955645;28;20043;-77
2022/09/14 00:30:11;;;;;;;5.83;4.97;;;;;;;12.46;77.61;100601.53;4955817;28;20031;-78
2022/09/14 00:32:37;;;;;;;6.90;4.90;;;;;;;12.43;77.32;100593.84;4955647;28;20109;-77
2022/09/14 00:35:03;;;;;;;10.47;5.53;;;;;;;12.42;77.40;100582.34;4955636;28;20031;-76
2022/09/14 00:37:28;;;;;;;8.47;5.53;;;;;;;12.36;77.64;100577.72;4955557;28;20082;-78
2022/09/14 00:39:54;;;;;;;5.97;5.30;;;;;;;12.38;77.64;100581.03;4955420;28;20046;-78
2022/09/14 00:42:19;;;;;;;7.23;6.03;;;;;;;12.33;77.79;100570.06;4955157;28;20034;-77
2022/09/14 00:44:45;;;;;;;6.47;5.87;;;;;;;12.34;77.71;100585.91;4954568;29;20043;-75
2022/09/14 00:47:12;;;;;;;9.47;6.20;;;;;;;12.30;78.21;100576.59;4955749;28;20041;-77
2022/09/14 00:49:40;;;;;;;7.23;5.93;;;;;;;12.31;77.96;100580.09;4956427;28;20069;-77
2022/09/14 00:52:25;;;;;;;8.38;5.85;;;;;;;12.35;77.92;100587.56;4956874;28;20035;-76
2022/09/14 00:54:55;;;;;;;6.70;5.47;;;;;;;12.22;78.43;100563.31;4955110;29;20039;-78
2022/09/14 00:57:22;;;;;;;11.53;6.23;;;;;;;12.32;78.37;100584.44;4954175;29;20043;-77
2022/09/14 00:59:49;;;;;;;8.30;5.73;;;;;;;12.29;78.32;100582.94;4955436;28;20126;-79
2022/09/14 01:02:15;;;;;;;6.37;5.70;;;;;;;12.16;79.20;100571.22;4955068;28;20505;-77
2022/09/14 01:04:42;;;;;;;7.43;5.30;;;;;;;12.11;79.30;100579.72;4955161;28;20126;-77
2022/09/14 01:07:18;;;;;;;9.20;6.23;;;;;;;11.95;79.64;100558.50;4954772;28;20043;-77
2022/09/14 01:10:09;;;;;;;9.77;5.20;;;;;;;12.02;79.83;100573.63;4954914;28;20070;-79
2022/09/14 01:12:54;;;;;;;7.60;4.87;;;;;;;11.99;79.98;100568.63;4955190;28;20071;-77
2022/09/14 01:15:45;;;;;;;7.57;5.20;;;;;;;11.93;80.12;100572.00;4954844;28;20043;-78
2022/09/14 01:18:44;;;;;;;7.37;5.53;;;;;;;11.87;80.29;100571.88;4955827;28;20089;-77
2022/09/14 01:21:24;;;;;;;10.43;5.67;;;;;;;11.76;80.80;100565.88;4955609;28;20078;-76
2022/09/14 01:23:59;;;;;;;8.60;5.50;;;;;;;11.79;80.92;100562.06;4955252;28;20047;-77
2022/09/14 01:26:59;;;;;;;10.93;6.07;;;;;;;11.78;81.16;100563.91;4954858;28;20035;-76
2022/09/14 01:29:49;;;;;;;9.03;5.47;;;;;;;11.77;81.34;100562.22;4933160;29;20044;-77
2022/09/14 01:32:30;;;;;;;7.53;5.03;;;;;;;11.74;81.26;100562.56;4953820;28;20047;-76
2022/09/14 01:35:41;;;;;;;7.67;5.23;;;;;;;11.72;81.31;100553.91;4954458;28;20047;-77
2022/09/14 01:38:14;;;;;;;10.20;6.70;;;;;;;11.64;81.39;100553.13;4953302;29;20157;-78
2022/09/14 01:40:49;;;;;;;8.53;6.20;;;;;;;11.48;81.92;100533.53;4954268;28;20039;-75
2022/09/14 01:43:21;;;;;;;6.73;4.97;;;;;;;11.47;81.85;100534.53;4954792;28;20058;-76
2022/09/14 01:46:03;;;;;;;9.73;6.30;;;;;;;11.54;82.11;100549.81;4954644;28;20083;-78
2022/09/14 01:49:00;;;;;;;6.90;4.33;;;;;;;11.52;81.81;100539.34;4954502;28;20042;-78
2022/09/14 01:51:35;;;;;;;7.50;4.83;;;;;;;11.42;82.27;100536.88;4954085;28;20138;-77
2022/09/14 01:54:13;;;;;;;5.57;4.93;;;;;;;11.42;82.44;100533.38;4953084;28;20039;-77
2022/09/14 01:56:49;;;;;;;6.83;5.20;;;;;;;11.32;82.71;100525.63;4954711;28;20084;-75
2022/09/14 01:59:20;;;;;;;7.80;4.93;;;;;;;11.28;82.93;100524.28;4954188;28;20039;-76
2022/09/14 02:02:12;;;;;;;7.47;6.17;;;;;;;11.21;83.51;100525.13;4954752;28;20039;-77
2022/09/14 02:04:52;;;;;;;9.10;5.83;;;;;;;11.01;83.88;100509.56;4954074;28;20087;-76
2022/09/14 02:07:18;;;;;;;11.20;5.37;;;;;;;10.94;84.25;100511.22;4953904;28;20035;-77
2022/09/14 02:09:48;;;;;;;9.30;5.30;;;;;;;10.94;84.72;100521.06;4953888;28;20262;-75
2022/09/14 02:12:39;;;;;;;7.13;5.60;;;;;;;10.84;85.31;100507.94;4953531;29;20061;-74
2022/09/14 02:15:07;;;;;;;10.40;6.13;;;;;;;10.82;85.27;100510.78;4954635;28;20039;-75
2022/09/14 02:17:33;;;;;;;8.13;5.55;;;;;;;10.85;85.24;100507.75;4954202;28;20046;-76
2022/09/14 02:20:01;;;;;;;8.63;5.43;;;;;;;10.77;84.86;100510.47;4954154;28;20430;-77
2022/09/14 02:22:28;;;;;;;5.93;5.30;;;;;;;10.65;85.41;100495.81;4954151;28;20043;-75
2022/09/14 02:24:55;;;;;;;10.47;6.07;;;;;;;10.67;85.54;100504.47;4954129;28;20051;-77
2022/09/14 02:27:21;;;;;;;7.27;5.67;;;;;;;10.56;85.85;100499.50;4953963;28;20035;-75
2022/09/14 02:29:47;;;;;;;16.97;7.63;;;;;;;10.60;86.05;100503.50;4954009;28;20106;-75
2022/09/14 02:32:43;;;;;;;7.93;6.57;;;;;;;10.62;86.16;100490.84;4952564;29;20532;-75
2022/09/14 02:35:45;;;;;;;10.27;6.83;;;;;;;10.69;86.53;100493.63;4954122;29;20062;-75
2022/09/14 02:38:17;;;;;;;11.90;6.53;;;;;;;10.72;86.06;100491.50;4953902;28;20047;-76
2022/09/14 02:40:49;;;;;;;10.77;6.93;;;;;;;10.70;85.50;100485.50;4953916;28;20109;-77
2022/09/14 02:43:14;;;;;;;8.87;5.53;;;;;;;10.77;85.48;100489.16;4952731;29;20046;-75
2022/09/14 02:46:08;;;;;;;6.87;6.17;;;;;;;10.74;85.49;100486.81;4952507;29;20473;-74
2022/09/14 02:48:49;;;;;;;8.93;6.30;;;;;;;10.80;85.53;100491.47;4952670;29;20121;-75
2022/09/14 02:51:39;;;;;;;9.30;6.47;;;;;;;10.86;85.59;100482.78;4954840;28;20043;-74
2022/09/14 02:54:07;;;;;;;10.63;6.57;;;;;;;10.88;85.81;100484.44;4955441;28;20031;-76
2022/09/14 02:56:36;;;;;;;10.13;6.25;;;;;;;10.91;85.41;100486.75;4954661;28;20163;-74
2022/09/14 02:59:02;;;;;;;7.45;5.72;;;;;;;10.93;84.96;100476.75;4954242;28;20105;-75
2022/09/14 03:01:28;;;;;;;8.03;5.83;;;;;;;10.95;85.23;100480.09;4952621;29;20407;-76
2022/09/14 03:03:53;;;;;;;8.60;5.83;;;;;;;10.94;84.13;100473.94;4953394;28;20038;-78
2022/09/14 03:06:19;;;;;;;9.30;5.53;;;;;;;10.94;84.71;100473.09;4955404;28;20035;-75
2022/09/14 03:08:48;;;;;;;12.27;6.03;;;;;;;10.93;84.89;100474.09;4957131;28;20091;-77
2022/09/14 03:11:13;;;;;;;8.68;6.03;;;;;;;10.93;84.96;100472.25;4957582;28;20042;-79
2022/09/14 03:13:39;;;;;;;10.90;6.37;;;;;;;10.93;85.06;100447.47;4957210;28;20039;-77
2022/09/14 03:16:11;;;;;;;6.53;5.93;;;;;;;10.90;85.24;100450.47;4957016;28;20122;-75
2022/09/14 03:18:37;;;;;;;7.40;5.50;;;;;;;10.93;84.88;100450.13;4957214;28;20031;-77
2022/09/14 03:21:10;;;;;;;10.03;6.30;;;;;;;10.95;84.72;100438.28;4957165;28;20042;-76
2022/09/14 03:23:44;;;;;;;10.47;6.40;;;;;;;10.93;84.45;100434.97;4956994;28;20442;-76
2022/09/14 03:26:13;;;;;;;10.97;6.57;;;;;;;10.89;84.28;100422.16;4957215;28;20027;-77
2022/09/14 03:28:39;;;;;;;10.63;6.93;;;;;;;10.81;84.82;100413.22;4956935;28;20043;-77
2022/09/14 03:31:06;;;;;;;11.87;6.17;;;;;;;10.84;84.85;100428.84;4956858;28;20574;-78
2022/09/14 03:33:32;;;;;;;9.00;6.27;;;;;;;10.74;84.76;100422.06;4957018;28;20032;-77
2022/09/14 03:35:59;;;;;;;11.83;6.07;;;;;;;10.79;84.91;100431.19;4956831;28;20042;-79
2022/09/14 03:38:28;;;;;;;8.03;5.70;;;;;;;10.77;85.33;100419.06;4956794;28;20047;-76
2022/09/14 03:40:55;;;;;;;8.57;6.27;;;;;;;10.78;85.32;100416.22;4956571;28;20039;-76
2022/09/14 03:43:20;;;;;;;8.10;5.57;;;;;;;10.82;85.33;100417.53;4956492;28;20142;-75
2022/09/14 03:45:46;;;;;;;9.37;6.00;;;;;;;10.80;85.38;100414.22;4956374;28;20467;-76
2022/09/14 03:48:14;;;;;;;11.13;6.20;;;;;;;10.81;85.35;100417.72;4955272;28;20035;-76
2022/09/14 03:50:40;;;;;;;7.97;5.45;;;;;;;10.72;85.03;100400.94;4954039;29;20035;-75
2022/09/14 03:53:05;;;;;;;12.27;5.70;;;;;;;10.89;85.09;100427.50;4955563;28;20039;-75
2022/09/14 03:55:31;;;;;;;7.70;6.90;;;;;;;10.94;84.58;100420.63;4955440;28;20113;-77
2022/09/14 03:57:56;;;;;;;11.43;6.57;;;;;;;10.99;84.83;100433.47;4955223;28;20121;-75
2022/09/14 04:00:22;;;;;;;10.47;6.60;;;;;;;10.95;84.32;100438.28;4955371;28;20043;-75
2022/09/14 04:02:49;;;;;;;9.03;5.83;;;;;;;10.83;85.06;100419.19;4956121;28;20445;-75
2022/09/14 04:05:14;;;;;;;13.17;6.97;;;;;;;10.86;85.22;100418.84;4939080;29;20529;-77
2022/09/14 04:07:40;;;;;;;13.50;6.50;;;;;;;10.89;85.29;100419.50;4956210;28;20043;-77
2022/09/14 04:10:09;;;;;;;8.37;6.30;;;;;;;10.95;84.57;100429.47;4955127;29;20106;-76
2022/09/14 04:12:39;;;;;;;8.40;5.77;;;;;;;10.88;84.77;100423.16;4955785;29;20099;-81
2022/09/14 04:15:05;;;;;;;;;;;;;;;10.81;84.97;100431.84;4940451;29;20047;-77
2022/09/14 04:17:33;;;;;;;9.10;6.10;;;;;;;10.73;85.61;100429.22;4955340;28;20309;-78
2022/09/14 04:19:59;;;;;;;;;;;;;;;10.76;85.72;100428.06;4956383;29;20133;-79
2022/09/14 04:22:24;;;;;;;14.03;8.20;;;;;;;10.71;85.60;100419.75;4957791;28;19968;-76
2022/09/14 04:24:50;;;;;;;7.87;5.70;;;;;;;10.78;85.51;100426.88;4956285;28;20031;-76
2022/09/14 04:27:16;;;;;;;7.57;6.43;;;;;;;10.79;85.47;100423.22;4955425;29;20071;-77
2022/09/14 04:29:46;;;;;;;7.13;5.93;;;;;;;10.76;85.35;100415.56;4957021;28;20434;-79
2022/09/14 04:32:11;;;;;;;8.60;6.00;;;;;;;10.77;85.27;100411.91;4956738;28;20089;-76
2022/09/14 04:34:38;;;;;;;12.70;6.93;;;;;;;10.81;85.27;100425.69;4955449;29;20043;-76
2022/09/14 04:37:03;;;;;;;15.67;7.83;;;;;;;10.81;85.52;100402.56;4956055;28;20055;-75
2022/09/14 04:39:29;;;;;;;7.27;6.07;;;;;;;10.90;84.92;100416.66;4954406;29;20067;-77
2022/09/14 04:41:57;;;;;;;8.03;6.67;;;;;;;10.93;85.68;100411.00;4955966;28;20047;-80
2022/09/14 04:44:22;;;;;;;10.77;6.82;;;;;;;10.95;84.95;100411.63;4956556;28;20043;-78
2022/09/14 04:46:48;;;;;;;10.47;6.33;;;;;;;10.97;85.47;100403.47;4956172;28;20376;-75
2022/09/14 04:49:17;;;;;;;13.00;6.83;;;;;;;11.02;85.49;100406.47;4957538;28;20039;-78
2022/09/14 04:51:43;;;;;;;16.77;8.03;;;;;;;11.04;85.32;100401.81;4955220;28;20038;-76
2022/09/14 04:54:15;;;;;;;13.37;6.83;;;;;;;11.07;85.23;100409.44;4955986;29;20074;-79
2022/09/14 04:56:40;;;;;;;10.70;8.37;;;;;;;10.96;85.60;100392.00;4958071;28;20043;-77
2022/09/14 04:59:06;;;;;;;13.13;7.27;;;;;;;11.01;85.47;100407.47;4958824;29;20039;-76
2022/09/14 05:01:35;;;;;;;13.93;6.37;;;;;;;10.99;85.50;100407.66;4958461;28;20043;-76
2022/09/14 05:04:01;;;;;;;12.33;6.73;;;;;;;10.94;85.77;100398.50;4956945;28;20039;-79
2022/09/14 05:06:33;;;;;;;9.93;7.10;;;;;;;10.88;85.42;100388.53;4957739;29;20055;-76
2022/09/14 05:09:02;;;;;;;12.70;6.73;;;;;;;10.86;85.77;100394.03;4961912;28;20387;-77
2022/09/14 05:11:32;;;;;;;10.77;6.77;;;;;;;10.91;85.88;100404.19;4963891;28;20155;-76
2022/09/14 05:13:58;;;;;;;10.10;7.47;;;;;;;10.85;86.93;100395.03;4946397;29;20106;-75
2022/09/14 05:16:29;;;;;;;10.97;7.23;;;;;;;10.95;87.45;100400.97;4963350;28;20043;-77
2022/09/14 05:19:13;;;;;;;9.67;8.17;;;;;;;11.03;87.22;100402.81;4964479;28;20031;-76
2022/09/14 05:21:38;;;;;;;8.20;6.63;;;;;;;11.02;86.95;100398.47;4958436;29;20047;-77
2022/09/14 05:24:10;;;;;;;16.23;7.70;;;;;;;10.94;86.88;100394.00;4950702;29;20095;-78
2022/09/14 05:26:36;;;;;;;10.27;7.77;;;;;;;11.02;87.85;100411.81;4947957;29;20062;-76
2022/09/14 05:29:02;;;;;;;16.10;7.97;;;;;;;11.06;88.06;100407.78;4948326;29;20495;-76
2022/09/14 05:31:29;;;;;;;12.13;8.53;;;;;;;11.09;88.48;100404.75;4946184;29;20056;-77
2022/09/14 05:33:56;;;;;;;12.80;7.60;;;;;;;11.16;87.61;100403.06;4933776;29;20031;-75
2022/09/14 05:36:24;;;;;;;13.73;7.40;;;;;;;11.10;86.69;100385.09;4945384;29;20287;-78
2022/09/14 05:39:18;;;;;;;13.17;7.10;;;;;;;11.16;86.96;100397.72;4936344;29;20128;-77
2022/09/14 05:41:44;;;;;;;11.95;7.18;;;;;;;11.00;86.95;100371.19;4939353;29;20043;-79
2022/09/14 05:44:09;;;;;;;13.33;7.33;;;;;;;11.05;86.50;100380.31;4937563;29;20130;-76
2022/09/14 05:46:55;;;;;;;12.17;7.27;;;;;;;11.00;87.35;100372.00;4938845;29;20039;-77
2022/09/14 05:49:20;;;;;;;10.77;7.23;;;;;;;10.99;87.77;100385.50;4953001;29;20031;-75
2022/09/14 05:51:46;;;;;;;12.60;8.07;;;;;;;11.08;87.32;100384.44;4956502;29;20023;-79
2022/09/14 05:54:12;;;;;;;13.50;6.97;;;;;;;11.04;87.61;100378.66;4956842;28;20024;-80
2022/09/14 05:56:40;;;;;;;12.60;7.40;;;;;;;11.13;86.76;100382.09;4956682;28;20042;-76
2022/09/14 05:59:06;;;;;;;14.18;8.98;;;;;;;11.13;87.04;100387.41;4946767;29;20028;-80
2022/09/14 06:01:34;;;;;;;10.43;8.10;;;;;;;11.17;87.42;100383.38;4935459;29;20042;-80
2022/09/14 06:04:03;;;;;;;;;;;;;;;11.24;87.83;100379.00;4935093;29;20035;-80
2022/09/14 06:06:33;;;;;;;11.90;7.80;;;;;;;11.18;87.44;100369.88;4935040;29;20271;-81
2022/09/14 06:09:05;;;;;;;14.23;7.50;;;;;;;11.17;87.43;100359.41;4935230;29;20166;-80
2022/09/14 06:11:39;;;;;;;10.20;7.43;;;;;;;11.34;86.85;100379.63;4934127;29;20040;-78
2022/09/14 06:14:05;;;;;;;12.25;7.95;;;;;;;11.33;86.74;100367.31;4934852;28;20602;-76
2022/09/14 06:16:30;;;;;;;15.73;7.97;;;;;;;11.44;86.56;100385.53;4934972;28;20111;-77
2022/09/14 06:18:57;;;;;;;12.50;8.00;;;;;;;11.36;86.46;100366.94;4934123;29;20439;-79
2022/09/14 06:21:28;;;;;;;16.47;8.20;;;;;;;11.38;86.33;100380.94;4935257;29;20043;-79
2022/09/14 06:23:54;;;;;;;11.03;8.57;;;;;;;11.37;87.26;100373.09;4934602;29;20031;-78
2022/09/14 06:26:20;;;;;;;11.37;7.53;;;;;;;11.36;87.17;100372.28;4935226;28;20043;-78
2022/09/14 06:28:46;;;;;;;15.67;8.63;;;;;;;11.39;87.50;100366.59;4935851;29;20032;-76
2022/09/14 06:31:13;;;;;;;13.70;8.13;;;;;;;11.41;86.53;100369.06;4949083;29;20086;-79
2022/09/14 06:33:46;;;;;;;13.63;7.63;;;;;;;11.40;86.77;100370.91;4953277;28;20459;-80
2022/09/14 06:36:16;;;;;;;15.07;8.57;;;;;;;11.39;87.47;100371.94;4954838;28;20039;-81
2022/09/14 06:38:43;;;;;;;13.70;7.93;;;;;;;11.44;87.98;100368.72;4954387;28;20074;-77
2022/09/14 06:41:11;;;;;;;21.00;7.77;;;;;;;11.48;88.04;100375.34;4956353;28;20043;-79
2022/09/14 06:43:39;;;;;;;18.33;7.95;;;;;;;11.58;88.69;100377.81;4973258;28;20031;-77
2022/09/14 06:46:09;;;;;;;9.93;7.53;;;;;;;11.64;87.64;100379.75;4970912;28;20046;-78
2022/09/14 06:48:37;;;;;;;12.70;7.60;;;;;;;11.60;87.45;100368.63;4970840;29;20031;-77
2022/09/14 06:51:19;;;;;;;;;;;;;;;11.65;87.82;100381.41;4980378;28;20019;-76
2022/09/14 06:53:46;;;;;;;14.10;8.37;;;;;;;11.44;88.23;100369.56;4980118;28;19956;-77
2022/09/14 06:56:12;;;;;;;11.20;7.80;;;;;;;11.25;89.27;100362.00;4980253;28;20072;-76
2022/09/14 06:58:38;;;;;;;11.73;6.83;;;;;;;11.25;89.38;100370.00;4980824;28;20039;-78
2022/09/14 07:01:06;;;;;;;14.87;7.87;;;;;;;11.22;89.38;100367.69;4979041;28;20045;-79
2022/09/14 07:03:37;;;;;;;11.40;8.63;;;;;;;11.25;90.28;100359.34;4978932;28;20027;-79
2022/09/14 07:06:05;;;;;;;9.17;7.87;;;;;;;11.42;90.40;100366.22;4979176;28;20329;-78
2022/09/14 07:08:37;;;;;;;9.23;7.27;;;;;;;11.48;89.81;100359.34;4979279;29;20045;-79
2022/09/14 07:11:04;;;;;;;13.43;9.13;;;;;;;11.44;89.80;100358.06;4981437;28;20297;-81
2022/09/14 07:13:30;;;;;;;12.97;7.60;;;;;;;11.44;90.22;100358.06;4979025;29;20066;-77
2022/09/14 07:15:56;;;;;;;14.07;8.17;;;;;;;11.44;90.15;100358.06;4961477;28;20035;-76
2022/09/14 07:18:30;;;;;;;8.80;7.57;;;;;;;11.36;90.10;100344.78;4960253;28;20406;-82
2022/09/14 07:21:10;;;;;;;13.63;8.17;;;;;;;11.39;89.64;100361.25;4962795;28;20438;-76
2022/09/14 07:23:39;;;;;;;11.67;8.10;;;;;;;11.39;90.25;100358.59;4960832;28;20039;-77
2022/09/14 07:26:19;;;;;;;12.68;7.55;;;;;;;11.44;90.37;100361.56;4961847;28;20040;-78
2022/09/14 07:28:55;;;;;;;11.53;9.57;;;;;;;11.39;90.28;100345.25;4965033;28;20043;-78
2022/09/14 07:31:28;;;;;;;12.53;9.87;;;;;;;11.43;90.67;100351.91;4963476;29;20035;-81
2022/09/14 07:33:56;;;;;;;14.53;9.07;;;;;;;11.41;90.91;100348.56;4963051;28;20035;-79
2022/09/14 07:36:26;;;;;;;15.50;9.20;;;;;;;11.32;90.86;100347.00;4959630;29;20078;-78
2022/09/14 07:38:52;;;;;;;14.53;9.97;;;;;;;11.43;91.41;100346.56;4956258;29;20642;-78
2022/09/14 07:41:19;;;;;;;15.13;9.30;;;;;;;11.40;91.19;100336.25;4957964;28;20129;-77
2022/09/14 07:43:48;;;;;;;20.60;9.73;;;;;;;11.52;91.64;100341.16;4957381;28;20076;-75
2022/09/14 07:46:14;;;;;;;14.93;9.20;;;;;;;11.65;91.16;100336.06;4957030;28;20134;-81
2022/09/14 07:48:42;;;;;;;13.83;9.97;;;;;;;11.66;89.82;100341.22;4957060;28;20470;-76
2022/09/14 07:51:09;;;;;;;13.38;9.52;;;;;;;11.57;88.77;100336.13;4956398;28;20478;-78
2022/09/14 07:53:41;;;;;;;15.67;8.93;;;;;;;11.51;89.59;100342.16;4955582;28;20038;-79
2022/09/14 07:56:08;;;;;;;10.70;8.27;;;;;;;11.57;90.05;100346.81;4958732;28;20098;-79
2022/09/14 07:58:40;;;;;;;10.70;8.37;;;;;;;11.48;89.18;100322.03;4958715;28;20031;-82
2022/09/14 08:01:39;;;;;;;9.00;7.40;;;;;;;11.57;89.63;100325.47;4960764;28;20042;-82
2022/09/14 08:04:05;;;;;;;10.90;9.27;;;;;;;11.80;89.10;100331.59;4961641;28;20027;-80
2022/09/14 08:06:31;;;;;;;13.63;9.70;;;;;;;11.92;88.13;100335.50;4963228;28;20110;-81
2022/09/14 08:08:57;;;;;;;12.37;8.47;;;;;;;11.99;87.89;100339.09;4960124;28;20122;-78
2022/09/14 08:11:31;;;;;;;12.60;8.40;;;;;;;11.98;87.65;100329.44;4956721;29;20038;-80
2022/09/14 08:14:03;;;;;;;9.67;8.33;;;;;;;12.21;87.93;100328.56;4958296;28;20454;-79
2022/09/14 08:16:31;;;;;;;11.40;8.20;;;;;;;12.35;86.00;100335.72;4959216;28;20067;-81
2022/09/14 08:18:59;;;;;;;9.97;7.93;;;;;;;12.35;86.45;100336.56;4940700;29;20086;-84
2022/09/14 08:21:26;;;;;;;12.73;8.18;;;;;;;12.37;87.04;100317.66;4957083;28;20051;-79
2022/09/14 08:23:52;;;;;;;11.07;8.43;;;;;;;12.53;84.09;100322.81;4957339;28;20035;-77
2022/09/14 08:26:23;;;;;;;14.43;7.67;;;;;;;12.50;84.11;100317.88;4957007;28;20038;-79
2022/09/14 08:28:50;;;;;;;11.33;7.57;;;;;;;12.63;84.47;100327.88;4956823;29;20042;-77
2022/09/14 08:31:22;;;;;;;8.47;7.40;;;;;;;12.81;84.56;100317.63;4958366;28;20483;-78
2022/09/14 08:33:51;;;;;;;16.03;8.80;;;;;;;12.95;82.43;100315.91;4964060;28;20046;-77
2022/09/14 08:36:18;;;;;;;39.50;8.85;;;;;;;12.84;82.10;100309.22;4957107;28;20038;-80
2022/09/14 08:38:44;;;;;;;12.33;8.53;;;;;;;12.85;81.58;100312.72;4958998;28;20051;-81
2022/09/14 08:41:34;;;;;;;13.43;8.00;;;;;;;12.89;82.03;100301.47;4957600;28;20413;-78
2022/09/14 08:44:24;;;;;;;10.27;7.60;;;;;;;12.83;81.81;100296.06;4955884;29;20043;-79
2022/09/14 08:47:18;;;;;;;13.63;7.20;;;;;;;12.96;82.12;100304.22;4954874;29;20034;-78
2022/09/14 08:50:53;;;;;;;11.27;7.30;;;;;;;13.05;81.38;100295.06;4955490;28;20494;-81
2022/09/14 08:53:19;;;;;;;;;;;;;;;13.21;80.03;100296.69;4951032;29;20102;-75
2022/09/14 08:55:51;;;;;;;8.73;6.27;;;;;;;13.10;80.37;100295.31;4955249;28;19929;-74
2022/09/14 08:58:17;;;;;;;9.93;7.00;;;;;;;13.18;81.36;100294.41;4955148;28;20097;-78
2022/09/14 09:00:45;;;;;;;9.90;7.27;;;;;;;13.18;79.93;100295.22;4955646;28;20043;-78
2022/09/14 09:03:29;;;;;;;9.13;7.75;;;;;;;13.39;81.65;100291.72;4955208;28;20050;-81
2022/09/14 09:06:07;;;;;;;11.43;7.43;;;;;;;13.47;79.20;100280.06;4954062;29;20094;-78
2022/09/14 09:08:58;;;;;;;16.87;8.47;;;;;;;13.50;79.90;100287.69;4954588;28;20109;-78
2022/09/14 09:11:52;;;;;;;10.23;7.23;;;;;;;13.42;78.53;100279.81;4955716;29;20425;-77
2022/09/14 09:14:32;;;;;;;7.38;6.28;;;;;;;13.29;79.18;100275.16;4954965;28;20053;-75
2022/09/14 09:17:09;;;;;;;9.80;6.40;;;;;;;13.31;80.75;100279.31;4954298;28;20130;-80
2022/09/14 09:19:59;;;;;;;9.07;6.67;;;;;;;13.35;80.24;100268.25;4955350;28;20054;-79
2022/09/14 09:22:30;;;;;;;8.50;6.00;;;;;;;13.33;78.97;100245.19;4954755;28;20043;-77
2022/09/14 09:24:57;;;;;;;12.73;6.03;;;;;;;13.43;79.02;100257.41;4955283;28;20052;-77
2022/09/14 09:27:24;;;;;;;7.93;6.57;;;;;;;13.50;77.87;100255.59;4955739;29;20043;-78
2022/09/14 09:29:50;;;;;;;11.57;6.90;;;;;;;13.64;78.05;100257.38;4958271;28;20039;-81
2022/09/14 09:32:25;;;;;;;17.20;6.73;;;;;;;13.83;77.73;100245.94;4957751;28;20379;-79
2022/09/14 09:34:54;;;;;;;10.25;6.28;;;;;;;14.07;76.39;100257.22;4954883;29;20554;-76
2022/09/14 09:37:50;;;;;;;9.27;5.80;;;;;;;14.09;75.16;100249.81;4955253;28;20042;-78
2022/09/14 09:40:19;;;;;;;11.73;6.57;;;;;;;14.02;75.89;100222.19;4955061;28;20518;-78
2022/09/14 09:43:08;;;;;;;9.43;6.67;;;;;;;14.46;74.08;100245.91;4953305;29;20137;-77
2022/09/14 09:45:46;;;;;;;11.37;6.70;;;;;;;14.47;74.02;100242.22;4954737;28;20043;-78
2022/09/14 09:48:17;;;;;;;8.03;6.20;;;;;;;14.17;74.36;100204.97;4955719;28;20027;-82
2022/09/14 09:51:00;;;;;;;9.73;6.70;;;;;;;13.99;73.09;100198.47;4954974;28;20279;-79
2022/09/14 09:53:27;;;;;;;7.90;6.70;;;;;;;14.36;74.11;100223.97;4957578;28;20109;-79
2022/09/14 09:55:53;;;;;;;11.60;6.07;;;;;;;14.43;73.31;100230.22;4961521;28;20455;-80
2022/09/14 09:58:33;;;;;;;9.50;6.77;;;;;;;14.48;73.99;100225.94;4956349;28;20038;-77
2022/09/14 10:01:06;;;;;;;12.97;7.77;;;;;;;14.62;72.31;100234.81;4954496;28;20494;-77
2022/09/14 10:03:39;;;;;;;8.67;6.53;;;;;;;14.43;70.98;100209.59;4955806;28;20043;-79
2022/09/14 10:06:08;;;;;;;9.57;5.67;;;;;;;14.42;72.08;100224.00;4955910;28;20047;-76
2022/09/14 10:08:46;;;;;;;7.57;6.07;;;;;;;14.44;72.38;100221.97;4956756;28;20070;-77
2022/09/14 10:11:32;;;;;;;11.68;6.88;;;;;;;14.18;72.44;100187.03;4959736;28;20043;-74
2022/09/14 10:13:58;;;;;;;10.83;6.73;;;;;;;14.41;73.56;100218.84;4954651;29;20059;-78
2022/09/14 10:16:28;;;;;;;9.17;6.00;;;;;;;14.59;73.20;100219.16;4974353;28;20016;-78
2022/09/14 10:18:54;;;;;;;9.43;6.67;;;;;;;14.69;73.76;100208.03;4978573;28;20035;-76
2022/09/14 10:21:22;;;;;;;10.70;5.80;;;;;;;14.80;72.49;100218.19;4978938;28;20030;-79
2022/09/14 10:24:03;;;;;;;7.20;5.80;;;;;;;14.76;72.48;100209.72;4978128;28;20043;-77
2022/09/14 10:26:34;;;;;;;9.83;6.00;;;;;;;14.70;71.14;100205.16;4977863;28;20051;-80
2022/09/14 10:29:43;;;;;;;9.70;6.77;;;;;;;14.72;71.58;100208.44;4977261;28;20035;-75
2022/09/14 10:32:18;;;;;;;7.80;6.00;;;;;;;14.61;71.15;100197.50;4970896;29;20031;-73
2022/09/14 10:34:44;;;;;;;11.63;6.50;;;;;;;14.55;72.28;100199.16;4964748;28;20051;-75
2022/09/14 10:37:27;;;;;;;10.53;7.30;;;;;;;14.60;71.64;100195.84;4954952;28;20403;-78
2022/09/14 10:40:35;;;;;;;8.77;6.50;;;;;;;14.66;71.64;100200.41;4955450;28;20039;-78
2022/09/14 10:43:11;;;;;;;10.77;7.10;;;;;;;14.73;72.03;100193.19;4952915;29;20581;-80
2022/09/14 10:46:00;;;;;;;8.20;6.70;;;;;;;14.68;71.17;100190.31;4955369;28;20047;-76
2022/09/14 10:48:48;;;;;;;9.67;6.57;;;;;;;14.77;71.56;100184.56;4954467;28;20035;-75
2022/09/14 10:51:19;;;;;;;10.50;6.90;;;;;;;14.91;71.98;100190.75;4955528;28;20039;-76
2022/09/14 10:54:06;;;;;;;11.80;7.35;;;;;;;14.92;70.36;100184.38;4954534;28;20047;-76
2022/09/14 10:57:02;;;;;;;9.43;6.93;;;;;;;14.80;70.66;100184.16;4954383;28;20039;-80
2022/09/14 10:59:53;;;;;;;9.30;6.03;;;;;;;14.56;71.62;100187.41;4953890;28;20062;-78
2022/09/14 11:02:35;;;;;;;7.00;5.80;;;;;;;14.43;72.22;100185.50;4954529;28;20046;-78
2022/09/14 11:05:19;;;;;;;5.13;4.63;;;;;;;14.51;73.58;100174.63;4955765;28;20106;-73
2022/09/14 11:11:39;;;;;;;;;;;;;;;14.72;72.09;100178.97;4935532;29;20487;-75
2022/09/14 11:18:06;;;;;;;8.27;4.70;;;;;;;14.27;72.94;100148.34;4912550;28;20059;-76
2022/09/14 11:21:15;;;;;;;7.70;4.33;;;;;;;14.38;72.95;100174.53;4933959;29;20031;-79
2022/09/14 11:37:41;;;;;;;10.83;4.70;;;;;;;14.38;75.61;100184.41;5606532;23;20067;-80
2022/09/14 11:40:35;;;;;;;8.00;4.43;;;;;;;14.10;75.90;100160.41;4981336;28;20103;-76
2022/09/14 11:43:42;;;;;;;7.60;4.60;;;;;;;14.06;76.49;100175.22;4980423;28;20406;-78
2022/09/14 11:46:17;;;;;;;7.77;4.57;;;;;;;13.92;76.82;100167.16;4980591;28;20153;-79
2022/09/14 11:48:51;;;;;;;4.43;3.43;;;;;;;13.94;77.51;100170.47;4979489;28;20117;-78
2022/09/14 11:51:27;;;;;;;7.33;4.70;;;;;;;13.99;78.59;100163.69;4982658;28;20058;-79
2022/09/14 11:53:52;;;;;;;5.03;4.53;;;;;;;13.98;79.81;100145.97;4986624;28;20035;-77
2022/09/14 11:56:27;;;;;;;12.20;5.80;;;;;;;14.12;81.46;100145.81;4978246;28;20402;-76
2022/09/14 11:58:56;;;;;;;8.27;5.23;;;;;;;14.21;78.99;100149.97;4978740;28;20035;-77
2022/09/14 12:01:30;;;;;;;7.37;5.57;;;;;;;14.30;80.69;100161.31;4991794;28;20094;-78
2022/09/14 12:03:58;;;;;;;7.87;4.53;;;;;;;14.28;79.56;100158.03;4992673;28;20050;-78
2022/09/14 12:06:29;;;;;;;8.43;4.90;;;;;;;14.31;79.61;100154.13;4986974;28;20388;-77
2022/09/14 12:09:19;;;;;;;5.43;4.73;;;;;;;14.31;78.84;100152.25;4986165;28;20081;-77